Hasanuddin International Airport
WAAA : now visible

Airfield :











YOU CAN JOIN US ON...

 
LOGIN :

Register | Disclaimer

   EN    FR    IT 

 









Legend :    VFR   Marginal VFR   IFR   Intensive IFR   Very Intensive IFR
Visi :
Ceiling :
>= 8 km
>= 3000ft
5 to 8 km
1000 to 3000 ft
1500m to 5 km
500 to 1000 ft
800 to 1500m
200 to 500 ft
< 800m
< 200 ft
Symbols :   Thunderstorms  Fog  Heavy snow  Heavy precipitations  Wind > 20 kt






- Airport Elevation : 47 ft
- IATA code : UPG


WAAA - Hasanuddin International

CURRENT METAR :
  • 180730Z 10008KT 9999 FEW018CB FEW019 29/25 Q1009 NOSIG RMK CB IN APCH

EXPIRED METARs :
  • 180700Z 18009KT 140V210 9999 FEW018CB FEW019 30/24 Q1009 NOSIG RMK CB IN APCH
  • 180630Z 16008KT 130V210 9000 VCSH FEW018CB SCT019 29/24 Q1009 TEMPO TL0700 26011G28KT 3000 TSRA RMK CB IN APCH
  • 180600Z 27010KT 8000 VCSH FEW018CB FEW019 32/25 Q1009 TEMPO FM0610 TL0700 26011G28KT 3000 TSRA RMK CB IN CLIMB-OUT
  • 180530Z 28011KT 230V300 9000 VCSH FEW019 31/24 Q1009 NOSIG
  • 180500Z 29010KT 260V320 9999 FEW019 32/25 Q1010 NOSIG

TAF COR TAF WAAA
Valid from the 18 at 06:00 until the 19 at 12:00 UTC


180500Z 1806/1912 30010KT 9999 SCT019
TEMPO 1807/1811 12010G20KT 5000 TSRA FEW018CB
BECMG 1811/1813 12003KT 8000
WAAF FIR / Asia



MET'MAP, your aeronautical weather chart ! - Copyright ORBIFLY December 2007 - Disclaimer

ORBIFLY MET'MAP TEAM :

Programming & Development : Alexandra Zaïnal
Concept & original design : Baudouin d'Aumeries
Assistance for programming : Marc-Olivier Méhu
Technical & hardware support : Manuel Goepfert

Contact : metmap@orbifly.com




SOURCES & CREDITS :

   NOAA       Earth
Advisory